Borja — ICEC — position and weather

sailwx.info

Track history (hours):
 
Tides and Currents Weather Stations Pressure Air Temp Water Temp Dewpoint Dewpoint Depression Visibility Wind Speed Wind Dir Waves Ship Positions

Borja

Last reported at 2014-Aug-01 06:32 UTC. Time now 2014-Aug-01 09:50 UTC.
Position N 43°34' W 005°41'.

Length 186 m; draft 6 m.

Type: Ship. MMSI: 247196400.

Date/timePositionNaut miles runAvg speedWind from/ knotsBaromVisibWave heightAir tempDewpointWater temp
2014-Aug-01 06:32N 43°34' W 005°41'1717.5
2014-Aug-01 05:33N 43°48' W 005°28'18119.8
2014-Jul-31 20:25N 46°22' W 003°14'1919.4
2014-Jul-31 19:25N 46°39' W 002°59'1920.1
2014-Jul-31 18:30N 46°54' W 002°45'8 1.0
2014-Jul-31 10:30N 47°02' W 002°49'2119.3
2014-Jul-31 09:24N 47°12' W 003°16'1719.8
2014-Jul-31 08:32N 47°19' W 003°39'6019.2
2014-Jul-31 05:24N 47°47' W 004°58'18917.3
2014-Jul-30 18:30N 50°23' W 002°15'1920.2
2014-Jul-30 17:34N 50°36' W 001°53'4 3.8
2014-Jul-30 16:31N 50°40' W 001°51'0 0.0
2014-Jul-30 15:31N 50°40' W 001°51'0 0.1
2014-Jul-30 14:31N 50°40' W 001°51'0 0.0
2014-Jul-30 13:31N 50°40' W 001°51'0 0.0
2014-Jul-30 12:31N 50°40' W 001°51'0 0.0
2014-Jul-30 11:25N 50°40' W 001°51'0 0.0
2014-Jul-30 10:31N 50°40' W 001°51'0 0.0
2014-Jul-30 09:31N 50°40' W 001°51'0 0.0
2014-Jul-30 08:31N 50°40' W 001°51'0 0.0
2014-Jul-30 07:31N 50°40' W 001°51'0 0.0
2014-Jul-30 06:31N 50°40' W 001°51'0 0.0
2014-Jul-30 05:31N 50°40' W 001°51'0 0.0
2014-Jul-30 04:31N 50°40' W 001°51'0 0.0
2014-Jul-30 03:31N 50°40' W 001°51'0 0.0
2014-Jul-30 02:31N 50°40' W 001°51'0 0.0
2014-Jul-30 01:31N 50°40' W 001°51'0 0.0
2014-Jul-30 00:31N 50°40' W 001°51'0 0.0
2014-Jul-29 23:31N 50°40' W 001°51'0 0.0
2014-Jul-29 22:31N 50°40' W 001°51'0 0.0
2014-Jul-29 21:28N 50°40' W 001°51'0 0.0
2014-Jul-29 20:28N 50°40' W 001°51'0 0.0
2014-Jul-29 19:31N 50°40' W 001°51'0 0.0
2014-Jul-29 18:31N 50°40' W 001°51'0 0.0
2014-Jul-29 17:25N 50°40' W 001°51'0 0.0
2014-Jul-29 16:31N 50°40' W 001°51'0 0.0
2014-Jul-29 15:31N 50°40' W 001°52'0 0.0
2014-Jul-29 14:28N 50°40' W 001°52'0 0.0
2014-Jul-29 13:31N 50°40' W 001°51'0 0.0
2014-Jul-29 12:31N 50°40' W 001°51'0 0.0
2014-Jul-29 11:31N 50°40' W 001°51'0 0.0
2014-Jul-29 10:31N 50°40' W 001°51'0 0.0
2014-Jul-29 09:31N 50°40' W 001°51'0 0.1
2014-Jul-29 08:31N 50°40' W 001°51'0 0.0
2014-Jul-29 07:31N 50°40' W 001°51'0 0.0
2014-Jul-29 06:31N 50°40' W 001°51'0 0.0
2014-Jul-29 05:31N 50°40' W 001°51'0 0.0
2014-Jul-29 04:31N 50°40' W 001°51'0 0.0
2014-Jul-29 03:31N 50°40' W 001°51'0 0.0
2014-Jul-29 02:31N 50°40' W 001°51'0 0.0
2014-Jul-29 01:31N 50°40' W 001°51'1 1.4
2014-Jul-29 00:33N 50°39' W 001°53'5 4.9
2014-Jul-28 23:32N 50°42' W 001°59'0 0.1
2014-Jul-28 22:34N 50°42' W 001°59'9 8.8
2014-Jul-28 21:33N 50°34' W 001°55'19317.6
2014-Jul-28 10:33N 48°15' W 005°21'2120.0
2014-Jul-28 09:32N 47°55' W 005°14'26514.8
2014-Jul-27 15:33N 43°37' W 003°46'2520.5
2014-Jul-27 14:20N 44°02' W 003°51'8121.2
2014-Jul-27 10:31N 45°22' W 004°07'4821.2
2014-Jul-27 08:15N 46°09' W 004°17'1820.6
2014-Jul-27 07:23N 46°20' W 004°38'1619.4
2014-Jul-27 06:33N 46°35' W 004°47'4120.5
2014-Jul-27 04:33N 47°15' W 005°00'2320.5
2014-Jul-27 03:25N 47°37' W 005°08'2020.9
2014-Jul-27 02:29N 47°56' W 005°16'5719.2
2014-Jul-26 23:31N 48°51' W 004°55'2623.5
2014-Jul-26 22:25N 49°10' W 004°27'2023.5
2014-Jul-26 21:34N 49°23' W 004°04'10720.9
2014-Jul-26 16:26N 50°31' W 001°55'1213.2
2014-Jul-26 15:34N 50°42' W 001°58'1 1.2
2014-Jul-26 14:32N 50°42' W 001°59'0 0.0
2014-Jul-26 12:14N 50°42' W 001°59'1 1.5
2014-Jul-26 11:29N 50°42' W 001°58'12617.5
2014-Jul-26 04:19N 49°15' W 004°19'1619.7
2014-Jul-26 03:30N 49°04' W 004°36'2021.0
2014-Jul-26 02:33N 48°50' W 004°57'2323.4
2014-Jul-26 01:34N 48°33' W 005°21'2222.5
2014-Jul-26 00:34N 48°11' W 005°27'2322.6
2014-Jul-25 23:34N 47°48' W 005°28'2222.2
2014-Jul-25 22:34N 47°26' W 005°29'2222.4
2014-Jul-25 21:34N 47°03' W 005°30'4421.9
2014-Jul-25 19:32N 46°19' W 005°32'83 4.0
2014-Jul-24 22:29N 45°56' W 003°37'2620.2
2014-Jul-24 21:11N 46°18' W 003°17'1320.4
2014-Jul-24 20:34N 46°29' W 003°07'2120.5
2014-Jul-24 19:32N 46°47' W 002°51'2219.2
2014-Jul-24 18:22N 47°04' W 002°29'13 1.8
2014-Jul-24 11:05N 47°13' W 002°16'2818.6
2014-Jul-24 09:34N 46°53' W 002°45'2020.1
2014-Jul-24 08:34N 46°36' W 003°01'1919.3
2014-Jul-24 07:33N 46°19' W 003°15'9919.5
2014-Jul-24 02:28N 44°55' W 004°30'1919.7
2014-Jul-24 01:29N 44°38' W 004°44'1920.0
2014-Jul-24 00:33N 44°22' W 004°58'2420.1
2014-Jul-23 23:21N 44°02' W 005°15'1620.0
2014-Jul-23 22:33N 43°48' W 005°27'18 2.8
2014-Jul-23 16:07N 43°34' W 005°41'712.2
2014-Jul-23 15:32N 43°41' W 005°40'7322.1
2014-Jul-23 12:13N 44°54' W 005°37'17322.0
2014-Jul-23 04:23N 47°46' W 005°28'4622.1
2014-Jul-23 02:17N 48°32' W 005°22'1621.3
2014-Jul-23 01:32N 48°44' W 005°06'2021.1
2014-Jul-23 00:33N 48°59' W 004°43'2221.5
2014-Jul-22 23:33N 49°14' W 004°20'12621.1
2014-Jul-22 17:33N 50°39' W 001°55'5 0.6
2014-Jul-22 09:33N 50°42' W 001°59'7 7.2
2014-Jul-22 08:33N 50°36' W 001°54'  
Track history (hours):
 
Tides and Currents Weather Stations Pressure Air Temp Water Temp Dewpoint Dewpoint Depression Visibility Wind Speed Wind Dir Waves Ship Positions

Borja

Last reported at 2014-Aug-01 06:32 UTC. Time now 2014-Aug-01 09:50 UTC.
Position N 43°34' W 005°41'.

Length 186 m; draft 6 m.

Type: Ship. MMSI: 247196400.

Date/timePositionNaut miles runAvg speedWind from/ knotsBaromVisibWave heightAir tempDewpointWater temp
2014-Aug-01 06:32N 43°34' W 005°41'1717.5
2014-Aug-01 05:33N 43°48' W 005°28'18119.8
2014-Jul-31 20:25N 46°22' W 003°14'1919.4
2014-Jul-31 19:25N 46°39' W 002°59'1920.1
2014-Jul-31 18:30N 46°54' W 002°45'8 1.0
2014-Jul-31 10:30N 47°02' W 002°49'2119.3
2014-Jul-31 09:24N 47°12' W 003°16'1719.8
2014-Jul-31 08:32N 47°19' W 003°39'6019.2
2014-Jul-31 05:24N 47°47' W 004°58'18917.3
2014-Jul-30 18:30N 50°23' W 002°15'1920.2
2014-Jul-30 17:34N 50°36' W 001°53'4 3.8
2014-Jul-30 16:31N 50°40' W 001°51'0 0.0
2014-Jul-30 15:31N 50°40' W 001°51'0 0.1
2014-Jul-30 14:31N 50°40' W 001°51'0 0.0
2014-Jul-30 13:31N 50°40' W 001°51'0 0.0
2014-Jul-30 12:31N 50°40' W 001°51'0 0.0
2014-Jul-30 11:25N 50°40' W 001°51'0 0.0
2014-Jul-30 10:31N 50°40' W 001°51'0 0.0
2014-Jul-30 09:31N 50°40' W 001°51'0 0.0
2014-Jul-30 08:31N 50°40' W 001°51'0 0.0
2014-Jul-30 07:31N 50°40' W 001°51'0 0.0
2014-Jul-30 06:31N 50°40' W 001°51'0 0.0
2014-Jul-30 05:31N 50°40' W 001°51'0 0.0
2014-Jul-30 04:31N 50°40' W 001°51'0 0.0
2014-Jul-30 03:31N 50°40' W 001°51'0 0.0
2014-Jul-30 02:31N 50°40' W 001°51'0 0.0
2014-Jul-30 01:31N 50°40' W 001°51'0 0.0
2014-Jul-30 00:31N 50°40' W 001°51'0 0.0
2014-Jul-29 23:31N 50°40' W 001°51'0 0.0
2014-Jul-29 22:31N 50°40' W 001°51'0 0.0
2014-Jul-29 21:28N 50°40' W 001°51'0 0.0
2014-Jul-29 20:28N 50°40' W 001°51'0 0.0
2014-Jul-29 19:31N 50°40' W 001°51'0 0.0
2014-Jul-29 18:31N 50°40' W 001°51'0 0.0
2014-Jul-29 17:25N 50°40' W 001°51'0 0.0
2014-Jul-29 16:31N 50°40' W 001°51'0 0.0
2014-Jul-29 15:31N 50°40' W 001°52'0 0.0
2014-Jul-29 14:28N 50°40' W 001°52'0 0.0
2014-Jul-29 13:31N 50°40' W 001°51'0 0.0
2014-Jul-29 12:31N 50°40' W 001°51'0 0.0
2014-Jul-29 11:31N 50°40' W 001°51'0 0.0
2014-Jul-29 10:31N 50°40' W 001°51'0 0.0
2014-Jul-29 09:31N 50°40' W 001°51'0 0.1
2014-Jul-29 08:31N 50°40' W 001°51'0 0.0
2014-Jul-29 07:31N 50°40' W 001°51'0 0.0
2014-Jul-29 06:31N 50°40' W 001°51'0 0.0
2014-Jul-29 05:31N 50°40' W 001°51'0 0.0
2014-Jul-29 04:31N 50°40' W 001°51'0 0.0
2014-Jul-29 03:31N 50°40' W 001°51'0 0.0
2014-Jul-29 02:31N 50°40' W 001°51'0 0.0
2014-Jul-29 01:31N 50°40' W 001°51'1 1.4
2014-Jul-29 00:33N 50°39' W 001°53'5 4.9
2014-Jul-28 23:32N 50°42' W 001°59'0 0.1
2014-Jul-28 22:34N 50°42' W 001°59'9 8.8
2014-Jul-28 21:33N 50°34' W 001°55'19317.6
2014-Jul-28 10:33N 48°15' W 005°21'2120.0
2014-Jul-28 09:32N 47°55' W 005°14'26514.8
2014-Jul-27 15:33N 43°37' W 003°46'2520.5
2014-Jul-27 14:20N 44°02' W 003°51'8121.2
2014-Jul-27 10:31N 45°22' W 004°07'4821.2
2014-Jul-27 08:15N 46°09' W 004°17'1820.6
2014-Jul-27 07:23N 46°20' W 004°38'1619.4
2014-Jul-27 06:33N 46°35' W 004°47'4120.5
2014-Jul-27 04:33N 47°15' W 005°00'2320.5
2014-Jul-27 03:25N 47°37' W 005°08'2020.9
2014-Jul-27 02:29N 47°56' W 005°16'5719.2
2014-Jul-26 23:31N 48°51' W 004°55'2623.5
2014-Jul-26 22:25N 49°10' W 004°27'2023.5
2014-Jul-26 21:34N 49°23' W 004°04'10720.9
2014-Jul-26 16:26N 50°31' W 001°55'1213.2
2014-Jul-26 15:34N 50°42' W 001°58'1 1.2
2014-Jul-26 14:32N 50°42' W 001°59'0 0.0
2014-Jul-26 12:14N 50°42' W 001°59'1 1.5
2014-Jul-26 11:29N 50°42' W 001°58'12617.5
2014-Jul-26 04:19N 49°15' W 004°19'1619.7
2014-Jul-26 03:30N 49°04' W 004°36'2021.0
2014-Jul-26 02:33N 48°50' W 004°57'2323.4
2014-Jul-26 01:34N 48°33' W 005°21'2222.5
2014-Jul-26 00:34N 48°11' W 005°27'2322.6
2014-Jul-25 23:34N 47°48' W 005°28'2222.2
2014-Jul-25 22:34N 47°26' W 005°29'2222.4
2014-Jul-25 21:34N 47°03' W 005°30'4421.9
2014-Jul-25 19:32N 46°19' W 005°32'83 4.0
2014-Jul-24 22:29N 45°56' W 003°37'2620.2
2014-Jul-24 21:11N 46°18' W 003°17'1320.4
2014-Jul-24 20:34N 46°29' W 003°07'2120.5
2014-Jul-24 19:32N 46°47' W 002°51'2219.2
2014-Jul-24 18:22N 47°04' W 002°29'13 1.8
2014-Jul-24 11:05N 47°13' W 002°16'2818.6
2014-Jul-24 09:34N 46°53' W 002°45'2020.1
2014-Jul-24 08:34N 46°36' W 003°01'1919.3
2014-Jul-24 07:33N 46°19' W 003°15'9919.5
2014-Jul-24 02:28N 44°55' W 004°30'1919.7
2014-Jul-24 01:29N 44°38' W 004°44'1920.0
2014-Jul-24 00:33N 44°22' W 004°58'2420.1
2014-Jul-23 23:21N 44°02' W 005°15'1620.0
2014-Jul-23 22:33N 43°48' W 005°27'18 2.8
2014-Jul-23 16:07N 43°34' W 005°41'712.2
2014-Jul-23 15:32N 43°41' W 005°40'7322.1
2014-Jul-23 12:13N 44°54' W 005°37'17322.0
2014-Jul-23 04:23N 47°46' W 005°28'4622.1
2014-Jul-23 02:17N 48°32' W 005°22'1621.3
2014-Jul-23 01:32N 48°44' W 005°06'2021.1
2014-Jul-23 00:33N 48°59' W 004°43'2221.5
2014-Jul-22 23:33N 49°14' W 004°20'12621.1
2014-Jul-22 17:33N 50°39' W 001°55'5 0.6
2014-Jul-22 09:33N 50°42' W 001°59'7 7.2
2014-Jul-22 08:33N 50°36' W 001°54'  

Dump ship's entire track history